Mary Rose Brusco — WDE2412 — position and weather

sailwx.info

Track history (hours):
 
Tides and Currents Weather Stations Pressure Air Temp Water Temp Dewpoint Dewpoint Depression Visibility Wind Speed Wind Dir Waves Ship Positions

Mary Rose Brusco

Owner: Brusco Tug & Barge, Inc., Longview, WA. More information available from US FCC via Universal Licensing System and Coast Guard Vessel Documentation Center.

Last reported at 2015-Jan-29 10:33 UTC. Time now 2015-Feb-02 01:46 UTC.
Position N 47°59' W 122°13'.

Length 20 m; draft 3 m.

Type: Towing. MMSI: 367324840.

Date/timePositionNaut miles runAvg speedWind from/ knotsBaromVisibWave heightAir tempDewpointWater temp
2015-Jan-29 10:33N 47°59' W 122°13'1 1.4
2015-Jan-29 09:33N 47°58' W 122°15'1 0.0
2015-Jan-28 03:33N 47°59' W 122°14'6 6.5
2015-Jan-28 02:33N 47°55' W 122°21'1 7.2
2015-Jan-28 02:22N 47°53' W 122°22'6 7.3
2015-Jan-28 01:33N 47°48' W 122°25'0 8.5
2015-Jan-28 01:32N 47°48' W 122°25'8 7.7
2015-Jan-28 00:33N 47°40' W 122°24'0 5.2
2015-Jan-28 00:32N 47°40' W 122°24'2 1.7
2015-Jan-27 23:33N 47°39' W 122°22'0 0.0
2015-Jan-27 23:32N 47°39' W 122°22'1 1.4
2015-Jan-27 22:33N 47°40' W 122°24'0 0.3
2015-Jan-27 22:32N 47°40' W 122°24'4 3.8
2015-Jan-27 21:33N 47°44' W 122°25'0 5.1
2015-Jan-27 21:32N 47°44' W 122°25'5 5.5
2015-Jan-27 20:33N 47°49' W 122°24'0 5.3
2015-Jan-27 20:32N 47°49' W 122°24'8 8.0
2015-Jan-27 19:33N 47°56' W 122°19'3 0.7
2015-Jan-27 15:33N 47°58' W 122°16'2 1.7
2015-Jan-27 14:33N 47°59' W 122°13'0 0.0
2015-Jan-26 17:16N 47°59' W 122°13'0 0.0
2015-Jan-26 16:33N 47°59' W 122°13'0 0.2
2015-Jan-26 15:33N 47°59' W 122°13'2 2.4
2015-Jan-26 14:33N 47°58' W 122°17'  
2015-Jan-21 18:23N 47°59' W 122°13'0 0.1
2015-Jan-21 17:33N 47°59' W 122°13'0 0.1
2015-Jan-21 16:33N 47°59' W 122°13'1 1.4
2015-Jan-21 15:33N 47°58' W 122°15'1 1.2
2015-Jan-21 14:33N 47°59' W 122°13'  
Track history (hours):
 
Tides and Currents Weather Stations Pressure Air Temp Water Temp Dewpoint Dewpoint Depression Visibility Wind Speed Wind Dir Waves Ship Positions

Mary Rose Brusco

Owner: Brusco Tug & Barge, Inc., Longview, WA. More information available from US FCC via Universal Licensing System and Coast Guard Vessel Documentation Center.

Last reported at 2015-Jan-29 10:33 UTC. Time now 2015-Feb-02 01:46 UTC.
Position N 47°59' W 122°13'.

Length 20 m; draft 3 m.

Type: Towing. MMSI: 367324840.

Date/timePositionNaut miles runAvg speedWind from/ knotsBaromVisibWave heightAir tempDewpointWater temp
2015-Jan-29 10:33N 47°59' W 122°13'1 1.4
2015-Jan-29 09:33N 47°58' W 122°15'1 0.0
2015-Jan-28 03:33N 47°59' W 122°14'6 6.5
2015-Jan-28 02:33N 47°55' W 122°21'1 7.2
2015-Jan-28 02:22N 47°53' W 122°22'6 7.3
2015-Jan-28 01:33N 47°48' W 122°25'0 8.5
2015-Jan-28 01:32N 47°48' W 122°25'8 7.7
2015-Jan-28 00:33N 47°40' W 122°24'0 5.2
2015-Jan-28 00:32N 47°40' W 122°24'2 1.7
2015-Jan-27 23:33N 47°39' W 122°22'0 0.0
2015-Jan-27 23:32N 47°39' W 122°22'1 1.4
2015-Jan-27 22:33N 47°40' W 122°24'0 0.3
2015-Jan-27 22:32N 47°40' W 122°24'4 3.8
2015-Jan-27 21:33N 47°44' W 122°25'0 5.1
2015-Jan-27 21:32N 47°44' W 122°25'5 5.5
2015-Jan-27 20:33N 47°49' W 122°24'0 5.3
2015-Jan-27 20:32N 47°49' W 122°24'8 8.0
2015-Jan-27 19:33N 47°56' W 122°19'3 0.7
2015-Jan-27 15:33N 47°58' W 122°16'2 1.7
2015-Jan-27 14:33N 47°59' W 122°13'0 0.0
2015-Jan-26 17:16N 47°59' W 122°13'0 0.0
2015-Jan-26 16:33N 47°59' W 122°13'0 0.2
2015-Jan-26 15:33N 47°59' W 122°13'2 2.4
2015-Jan-26 14:33N 47°58' W 122°17'  
2015-Jan-21 18:23N 47°59' W 122°13'0 0.1
2015-Jan-21 17:33N 47°59' W 122°13'0 0.1
2015-Jan-21 16:33N 47°59' W 122°13'1 1.4
2015-Jan-21 15:33N 47°58' W 122°15'1 1.2
2015-Jan-21 14:33N 47°59' W 122°13'  

Dump ship's entire track history